Главная страница
METAR-TAF:

METAR-TAF

Аэропорты :

Амами, Япония

широта: 28-26N, долгота: 129-43E, высота над уровнем моря: 4 м

Текущие метеонаблюдения

Эта сводка был подготовлена 31 минут назад, в 05:00 UTC
Ветер 15 Узел от северный, изменяющийся между северо-западный и северо-восточный
Температура 19°C
Влажность 56%
Давление 1018 hPa
Видимость 10 км и более
небольшая облачность на высоте 3000 фута
Рассеянная облачность

METAR: RJKA 260500Z 36015KT 320V040 9999 FEW030 BKN/// 19/10 Q1018

Время: 14:31 (05:31 UTC)


TAF: отсутствует

Метеонаблюдения и прогнозы для более 4000 аэропортов (сводки METAR и TAF).

Имеющиеся станции представлены на карте желтыми и красными точками.

Чтобы увидеть название станции, наведите на нее мышь.

Затем щелкните, чтобы увидеть метеонаблюдения и метеопрогнозы.

Управление картой: чтобы увеличить масштаб, щелкните зеленые кнопки с черным крестиком; чтобы уменьшить масштаб, щелкните зеленую кнопку с тире; для просмотра соседних карт щелкайте зеленые стрелки.


METAR-TAF: